sensor_id;sensor_type;location;lat;lon;timestamp;temperature;humidity
13585;DHT22;6863;48.402;9.994;2023-05-09T00:00:43;10.50;99.90
13585;DHT22;6863;48.402;9.994;2023-05-09T00:03:09;10.50;99.90
13585;DHT22;6863;48.402;9.994;2023-05-09T00:05:36;10.50;99.90
13585;DHT22;6863;48.402;9.994;2023-05-09T00:08:01;10.60;99.90
13585;DHT22;6863;48.402;9.994;2023-05-09T00:10:27;10.60;99.90
13585;DHT22;6863;48.402;9.994;2023-05-09T00:12:52;10.60;99.90
13585;DHT22;6863;48.402;9.994;2023-05-09T00:15:18;10.50;99.90
13585;DHT22;6863;48.402;9.994;2023-05-09T00:17:44;10.60;99.90
13585;DHT22;6863;48.402;9.994;2023-05-09T00:20:10;10.60;99.90
13585;DHT22;6863;48.402;9.994;2023-05-09T00:22:38;10.60;99.90
13585;DHT22;6863;48.402;9.994;2023-05-09T00:25:06;10.60;99.90
13585;DHT22;6863;48.402;9.994;2023-05-09T00:29:57;10.50;99.90
13585;DHT22;6863;48.402;9.994;2023-05-09T00:32:23;10.50;99.90
13585;DHT22;6863;48.402;9.994;2023-05-09T00:34:50;10.50;99.90
13585;DHT22;6863;48.402;9.994;2023-05-09T00:37:16;10.60;99.90
13585;DHT22;6863;48.402;9.994;2023-05-09T00:39:44;10.50;99.90
13585;DHT22;6863;48.402;9.994;2023-05-09T00:42:10;10.60;99.90
13585;DHT22;6863;48.402;9.994;2023-05-09T00:44:35;10.60;99.90
13585;DHT22;6863;48.402;9.994;2023-05-09T00:47:01;10.60;99.90
13585;DHT22;6863;48.402;9.994;2023-05-09T00:49:27;10.60;99.90
13585;DHT22;6863;48.402;9.994;2023-05-09T00:51:53;10.60;99.90
13585;DHT22;6863;48.402;9.994;2023-05-09T00:54:20;10.50;99.90
13585;DHT22;6863;48.402;9.994;2023-05-09T00:56:45;10.50;99.90
13585;DHT22;6863;48.402;9.994;2023-05-09T00:59:11;10.40;99.90
13585;DHT22;6863;48.402;9.994;2023-05-09T01:01:37;10.40;99.90
13585;DHT22;6863;48.402;9.994;2023-05-09T01:04:02;10.30;99.90
13585;DHT22;6863;48.402;9.994;2023-05-09T01:15:38;10.40;99.90
13585;DHT22;6863;48.402;9.994;2023-05-09T01:20:50;10.30;99.90
13585;DHT22;6863;48.402;9.994;2023-05-09T01:31:55;10.10;99.90
13585;DHT22;6863;48.402;9.994;2023-05-09T01:34:27;10.00;99.90
13585;DHT22;6863;48.402;9.994;2023-05-09T01:36:58;10.00;99.90
13585;DHT22;6863;48.402;9.994;2023-05-09T01:39:26;10.00;99.90
13585;DHT22;6863;48.402;9.994;2023-05-09T01:41:55;9.90;99.90
13585;DHT22;6863;48.402;9.994;2023-05-09T01:44:22;9.90;99.90
13585;DHT22;6863;48.402;9.994;2023-05-09T01:46:52;9.90;99.90
13585;DHT22;6863;48.402;9.994;2023-05-09T01:49:19;9.90;99.90
13585;DHT22;6863;48.402;9.994;2023-05-09T01:51:47;10.00;99.90
13585;DHT22;6863;48.402;9.994;2023-05-09T01:54:14;9.90;99.90
13585;DHT22;6863;48.402;9.994;2023-05-09T01:56:42;9.90;99.90
13585;DHT22;6863;48.402;9.994;2023-05-09T01:59:08;9.90;99.90
13585;DHT22;6863;48.402;9.994;2023-05-09T02:01:41;9.80;99.90
13585;DHT22;6863;48.402;9.994;2023-05-09T02:04:07;9.80;99.90
13585;DHT22;6863;48.402;9.994;2023-05-09T02:06:33;9.80;99.90
13585;DHT22;6863;48.402;9.994;2023-05-09T02:09:00;9.80;99.90
13585;DHT22;6863;48.402;9.994;2023-05-09T02:11:26;9.80;99.90
13585;DHT22;6863;48.402;9.994;2023-05-09T02:13:51;9.80;99.90
13585;DHT22;6863;48.402;9.994;2023-05-09T02:16:17;9.90;99.90
13585;DHT22;6863;48.402;9.994;2023-05-09T02:18:43;10.00;99.90
13585;DHT22;6863;48.402;9.994;2023-05-09T02:21:08;10.00;99.90
13585;DHT22;6863;48.402;9.994;2023-05-09T02:23:34;10.00;99.90
13585;DHT22;6863;48.402;9.994;2023-05-09T02:26:00;10.10;99.90
13585;DHT22;6863;48.402;9.994;2023-05-09T02:28:27;10.10;99.90
13585;DHT22;6863;48.402;9.994;2023-05-09T02:30:56;10.20;99.90
13585;DHT22;6863;48.402;9.994;2023-05-09T02:33:23;10.30;99.90
13585;DHT22;6863;48.402;9.994;2023-05-09T02:35:50;10.30;99.90
13585;DHT22;6863;48.402;9.994;2023-05-09T02:38:17;10.30;99.90
13585;DHT22;6863;48.402;9.994;2023-05-09T02:40:44;10.30;99.90
13585;DHT22;6863;48.402;9.994;2023-05-09T02:43:11;10.30;99.90
13585;DHT22;6863;48.402;9.994;2023-05-09T02:45:37;10.30;99.90
13585;DHT22;6863;48.402;9.994;2023-05-09T02:48:03;10.30;99.90
13585;DHT22;6863;48.402;9.994;2023-05-09T02:50:28;10.30;99.90
13585;DHT22;6863;48.402;9.994;2023-05-09T02:52:54;10.20;99.90
13585;DHT22;6863;48.402;9.994;2023-05-09T02:55:19;10.10;99.90
13585;DHT22;6863;48.402;9.994;2023-05-09T02:57:45;10.10;99.90
13585;DHT22;6863;48.402;9.994;2023-05-09T03:00:11;10.10;99.90
13585;DHT22;6863;48.402;9.994;2023-05-09T03:02:37;10.00;99.90
13585;DHT22;6863;48.402;9.994;2023-05-09T03:05:03;10.00;99.90
13585;DHT22;6863;48.402;9.994;2023-05-09T03:07:29;9.90;99.90
13585;DHT22;6863;48.402;9.994;2023-05-09T03:09:55;9.90;99.90
13585;DHT22;6863;48.402;9.994;2023-05-09T03:12:20;9.90;99.90
13585;DHT22;6863;48.402;9.994;2023-05-09T03:14:46;9.80;99.90
13585;DHT22;6863;48.402;9.994;2023-05-09T03:17:12;9.80;99.90
13585;DHT22;6863;48.402;9.994;2023-05-09T03:19:41;9.80;99.90
13585;DHT22;6863;48.402;9.994;2023-05-09T03:22:07;9.80;99.90
13585;DHT22;6863;48.402;9.994;2023-05-09T03:24:32;9.90;99.90
13585;DHT22;6863;48.402;9.994;2023-05-09T03:26:58;9.90;99.90
13585;DHT22;6863;48.402;9.994;2023-05-09T03:29:24;9.90;99.90
13585;DHT22;6863;48.402;9.994;2023-05-09T03:31:50;9.90;99.90
13585;DHT22;6863;48.402;9.994;2023-05-09T03:34:16;9.90;99.90
13585;DHT22;6863;48.402;9.994;2023-05-09T03:36:41;10.00;99.90
13585;DHT22;6863;48.402;9.994;2023-05-09T03:39:10;10.00;99.90
13585;DHT22;6863;48.402;9.994;2023-05-09T03:41:36;10.10;99.90
13585;DHT22;6863;48.402;9.994;2023-05-09T03:44:02;10.10;99.90
13585;DHT22;6863;48.402;9.994;2023-05-09T03:46:28;10.20;99.90
13585;DHT22;6863;48.402;9.994;2023-05-09T03:48:54;10.30;99.90
13585;DHT22;6863;48.402;9.994;2023-05-09T03:51:19;10.20;99.90
13585;DHT22;6863;48.402;9.994;2023-05-09T03:53:46;10.20;99.90
13585;DHT22;6863;48.402;9.994;2023-05-09T03:56:12;10.20;99.90
13585;DHT22;6863;48.402;9.994;2023-05-09T03:58:38;10.20;99.90
13585;DHT22;6863;48.402;9.994;2023-05-09T04:01:03;10.20;99.90
13585;DHT22;6863;48.402;9.994;2023-05-09T04:03:29;10.20;99.90
13585;DHT22;6863;48.402;9.994;2023-05-09T04:05:55;10.20;99.90
13585;DHT22;6863;48.402;9.994;2023-05-09T04:08:21;10.20;99.90
13585;DHT22;6863;48.402;9.994;2023-05-09T04:10:47;10.20;99.90
13585;DHT22;6863;48.402;9.994;2023-05-09T04:13:13;10.30;99.90
13585;DHT22;6863;48.402;9.994;2023-05-09T04:15:39;10.30;99.90
13585;DHT22;6863;48.402;9.994;2023-05-09T04:18:05;10.30;99.90
13585;DHT22;6863;48.402;9.994;2023-05-09T04:20:30;10.30;99.90
13585;DHT22;6863;48.402;9.994;2023-05-09T04:22:56;10.30;99.90
13585;DHT22;6863;48.402;9.994;2023-05-09T04:25:26;10.40;99.90
13585;DHT22;6863;48.402;9.994;2023-05-09T04:27:51;10.40;99.90
13585;DHT22;6863;48.402;9.994;2023-05-09T04:30:18;10.50;99.90
13585;DHT22;6863;48.402;9.994;2023-05-09T04:32:43;10.50;99.90
13585;DHT22;6863;48.402;9.994;2023-05-09T04:35:11;10.50;99.90
13585;DHT22;6863;48.402;9.994;2023-05-09T04:37:37;10.60;99.90
13585;DHT22;6863;48.402;9.994;2023-05-09T04:40:04;10.70;99.90
13585;DHT22;6863;48.402;9.994;2023-05-09T04:42:30;10.70;99.90
13585;DHT22;6863;48.402;9.994;2023-05-09T04:44:58;10.80;99.90
13585;DHT22;6863;48.402;9.994;2023-05-09T04:47:23;10.80;99.90
13585;DHT22;6863;48.402;9.994;2023-05-09T04:49:49;10.90;99.90
13585;DHT22;6863;48.402;9.994;2023-05-09T04:52:14;10.90;99.90
13585;DHT22;6863;48.402;9.994;2023-05-09T04:54:40;11.00;99.90
13585;DHT22;6863;48.402;9.994;2023-05-09T04:57:06;11.10;99.90
13585;DHT22;6863;48.402;9.994;2023-05-09T04:59:31;11.10;99.90
13585;DHT22;6863;48.402;9.994;2023-05-09T05:01:57;11.20;99.90
13585;DHT22;6863;48.402;9.994;2023-05-09T05:04:23;11.30;99.90
13585;DHT22;6863;48.402;9.994;2023-05-09T05:06:48;11.30;99.90
13585;DHT22;6863;48.402;9.994;2023-05-09T05:09:14;11.40;99.90
13585;DHT22;6863;48.402;9.994;2023-05-09T05:11:39;11.30;99.90
13585;DHT22;6863;48.402;9.994;2023-05-09T05:14:05;11.40;99.90
13585;DHT22;6863;48.402;9.994;2023-05-09T05:16:30;11.40;99.90
13585;DHT22;6863;48.402;9.994;2023-05-09T05:18:56;11.50;99.90
13585;DHT22;6863;48.402;9.994;2023-05-09T05:21:22;11.50;99.90
13585;DHT22;6863;48.402;9.994;2023-05-09T05:23:47;11.60;99.90
13585;DHT22;6863;48.402;9.994;2023-05-09T05:26:13;11.80;99.90
13585;DHT22;6863;48.402;9.994;2023-05-09T05:28:39;11.90;99.90
13585;DHT22;6863;48.402;9.994;2023-05-09T05:31:04;12.00;99.90
13585;DHT22;6863;48.402;9.994;2023-05-09T05:33:30;12.20;99.90
13585;DHT22;6863;48.402;9.994;2023-05-09T05:35:55;12.30;99.90
13585;DHT22;6863;48.402;9.994;2023-05-09T05:38:21;12.40;99.90
13585;DHT22;6863;48.402;9.994;2023-05-09T05:40:46;12.50;99.90
13585;DHT22;6863;48.402;9.994;2023-05-09T05:43:12;12.60;99.90
13585;DHT22;6863;48.402;9.994;2023-05-09T05:45:38;12.70;99.90
13585;DHT22;6863;48.402;9.994;2023-05-09T05:48:03;12.90;99.90
13585;DHT22;6863;48.402;9.994;2023-05-09T05:50:29;13.10;99.90
13585;DHT22;6863;48.402;9.994;2023-05-09T05:52:55;13.40;99.90
13585;DHT22;6863;48.402;9.994;2023-05-09T05:55:20;13.70;99.90
13585;DHT22;6863;48.402;9.994;2023-05-09T05:57:46;14.00;99.90
13585;DHT22;6863;48.402;9.994;2023-05-09T06:00:13;14.20;99.90
13585;DHT22;6863;48.402;9.994;2023-05-09T06:02:42;14.40;99.90
13585;DHT22;6863;48.402;9.994;2023-05-09T06:05:17;14.70;99.90
13585;DHT22;6863;48.402;9.994;2023-05-09T06:07:42;14.90;99.90
13585;DHT22;6863;48.402;9.994;2023-05-09T06:10:11;14.80;99.90
13585;DHT22;6863;48.402;9.994;2023-05-09T06:12:37;14.90;99.90
13585;DHT22;6863;48.402;9.994;2023-05-09T06:15:05;14.90;99.90
13585;DHT22;6863;48.402;9.994;2023-05-09T06:17:31;15.30;99.90
13585;DHT22;6863;48.402;9.994;2023-05-09T06:19:57;15.70;99.90
13585;DHT22;6863;48.402;9.994;2023-05-09T06:22:23;16.00;99.90
13585;DHT22;6863;48.402;9.994;2023-05-09T06:24:59;16.30;99.90
13585;DHT22;6863;48.402;9.994;2023-05-09T06:27:25;16.50;99.90
13585;DHT22;6863;48.402;9.994;2023-05-09T06:29:50;16.80;99.60
13585;DHT22;6863;48.402;9.994;2023-05-09T06:32:17;16.60;99.70
13585;DHT22;6863;48.402;9.994;2023-05-09T06:34:43;16.40;99.90
13585;DHT22;6863;48.402;9.994;2023-05-09T06:37:09;16.70;99.80
13585;DHT22;6863;48.402;9.994;2023-05-09T06:39:35;17.20;99.70
13585;DHT22;6863;48.402;9.994;2023-05-09T06:42:00;16.90;99.50
13585;DHT22;6863;48.402;9.994;2023-05-09T06:44:26;17.20;99.20
13585;DHT22;6863;48.402;9.994;2023-05-09T06:46:52;17.30;98.80
13585;DHT22;6863;48.402;9.994;2023-05-09T06:49:18;17.60;98.60
13585;DHT22;6863;48.402;9.994;2023-05-09T06:51:43;17.70;97.90
13585;DHT22;6863;48.402;9.994;2023-05-09T06:54:09;17.80;97.50
13585;DHT22;6863;48.402;9.994;2023-05-09T06:56:35;17.80;97.60
13585;DHT22;6863;48.402;9.994;2023-05-09T06:59:01;17.60;97.70
13585;DHT22;6863;48.402;9.994;2023-05-09T07:01:26;17.80;97.60
13585;DHT22;6863;48.402;9.994;2023-05-09T07:03:52;18.10;97.40
13585;DHT22;6863;48.402;9.994;2023-05-09T07:06:17;18.20;97.20
13585;DHT22;6863;48.402;9.994;2023-05-09T07:08:43;18.10;96.90
13585;DHT22;6863;48.402;9.994;2023-05-09T07:11:12;18.10;97.00
13585;DHT22;6863;48.402;9.994;2023-05-09T07:13:48;18.20;96.80
13585;DHT22;6863;48.402;9.994;2023-05-09T07:16:33;18.20;96.80
13585;DHT22;6863;48.402;9.994;2023-05-09T07:18:59;18.40;96.50
13585;DHT22;6863;48.402;9.994;2023-05-09T07:21:25;18.40;96.40
13585;DHT22;6863;48.402;9.994;2023-05-09T07:23:50;18.40;96.50
13585;DHT22;6863;48.402;9.994;2023-05-09T07:26:16;18.30;96.70
13585;DHT22;6863;48.402;9.994;2023-05-09T07:28:42;18.40;96.90
13585;DHT22;6863;48.402;9.994;2023-05-09T07:31:07;18.40;96.80
13585;DHT22;6863;48.402;9.994;2023-05-09T07:33:33;18.40;96.10
13585;DHT22;6863;48.402;9.994;2023-05-09T07:35:59;18.40;96.30
13585;DHT22;6863;48.402;9.994;2023-05-09T07:38:25;18.50;96.00
13585;DHT22;6863;48.402;9.994;2023-05-09T07:40:51;18.10;96.30
13585;DHT22;6863;48.402;9.994;2023-05-09T07:43:17;18.20;96.30
13585;DHT22;6863;48.402;9.994;2023-05-09T07:45:43;18.50;95.90
13585;DHT22;6863;48.402;9.994;2023-05-09T07:48:09;18.50;95.70
13585;DHT22;6863;48.402;9.994;2023-05-09T07:50:34;18.20;96.60
13585;DHT22;6863;48.402;9.994;2023-05-09T07:53:00;18.50;96.10
13585;DHT22;6863;48.402;9.994;2023-05-09T07:55:25;18.80;95.40
13585;DHT22;6863;48.402;9.994;2023-05-09T07:57:51;19.40;95.20
13585;DHT22;6863;48.402;9.994;2023-05-09T08:00:17;19.80;94.00
13585;DHT22;6863;48.402;9.994;2023-05-09T08:02:49;20.10;93.60
13585;DHT22;6863;48.402;9.994;2023-05-09T08:05:14;20.20;92.90
13585;DHT22;6863;48.402;9.994;2023-05-09T08:07:40;19.90;92.80
13585;DHT22;6863;48.402;9.994;2023-05-09T08:10:06;19.40;94.20
13585;DHT22;6863;48.402;9.994;2023-05-09T08:12:32;19.90;93.90
13585;DHT22;6863;48.402;9.994;2023-05-09T08:14:58;20.50;92.90
13585;DHT22;6863;48.402;9.994;2023-05-09T08:17:23;20.80;92.10
13585;DHT22;6863;48.402;9.994;2023-05-09T08:19:49;20.50;92.40
13585;DHT22;6863;48.402;9.994;2023-05-09T08:22:18;20.40;92.50
13585;DHT22;6863;48.402;9.994;2023-05-09T08:24:45;20.70;92.90
13585;DHT22;6863;48.402;9.994;2023-05-09T08:27:11;21.30;91.70
13585;DHT22;6863;48.402;9.994;2023-05-09T08:29:41;21.50;91.20
13585;DHT22;6863;48.402;9.994;2023-05-09T08:32:10;21.60;90.30
13585;DHT22;6863;48.402;9.994;2023-05-09T08:34:40;21.50;90.90
13585;DHT22;6863;48.402;9.994;2023-05-09T08:37:05;22.00;89.50
13585;DHT22;6863;48.402;9.994;2023-05-09T08:39:32;21.90;90.00
13585;DHT22;6863;48.402;9.994;2023-05-09T08:42:05;22.00;89.50
13585;DHT22;6863;48.402;9.994;2023-05-09T08:44:35;22.40;88.10
13585;DHT22;6863;48.402;9.994;2023-05-09T08:47:03;22.70;86.40
13585;DHT22;6863;48.402;9.994;2023-05-09T08:49:29;22.60;86.70
13585;DHT22;6863;48.402;9.994;2023-05-09T08:51:58;22.60;86.20
13585;DHT22;6863;48.402;9.994;2023-05-09T08:54:30;23.00;85.40
13585;DHT22;6863;48.402;9.994;2023-05-09T08:56:59;23.10;83.80
13585;DHT22;6863;48.402;9.994;2023-05-09T08:59:25;23.70;82.30
13585;DHT22;6863;48.402;9.994;2023-05-09T09:01:54;24.80;79.00
13585;DHT22;6863;48.402;9.994;2023-05-09T09:04:29;25.00;76.40
13585;DHT22;6863;48.402;9.994;2023-05-09T09:06:55;25.60;74.50
13585;DHT22;6863;48.402;9.994;2023-05-09T09:09:21;26.20;72.90
13585;DHT22;6863;48.402;9.994;2023-05-09T09:11:47;26.30;71.70
13585;DHT22;6863;48.402;9.994;2023-05-09T09:14:22;27.10;68.80
13585;DHT22;6863;48.402;9.994;2023-05-09T09:16:54;27.00;68.20
13585;DHT22;6863;48.402;9.994;2023-05-09T09:19:26;27.60;66.40
13585;DHT22;6863;48.402;9.994;2023-05-09T09:21:58;28.30;64.20
13585;DHT22;6863;48.402;9.994;2023-05-09T09:24:23;28.20;64.50
13585;DHT22;6863;48.402;9.994;2023-05-09T09:26:50;28.60;60.30
13585;DHT22;6863;48.402;9.994;2023-05-09T09:29:18;28.40;60.90
13585;DHT22;6863;48.402;9.994;2023-05-09T09:31:45;28.10;60.80
13585;DHT22;6863;48.402;9.994;2023-05-09T09:34:12;28.00;62.20
13585;DHT22;6863;48.402;9.994;2023-05-09T09:36:38;28.40;59.70
13585;DHT22;6863;48.402;9.994;2023-05-09T09:39:04;28.60;59.50
13585;DHT22;6863;48.402;9.994;2023-05-09T09:41:37;29.30;57.40
13585;DHT22;6863;48.402;9.994;2023-05-09T09:44:11;29.50;57.40
13585;DHT22;6863;48.402;9.994;2023-05-09T09:46:51;29.50;57.90
13585;DHT22;6863;48.402;9.994;2023-05-09T09:49:25;29.00;56.90
13585;DHT22;6863;48.402;9.994;2023-05-09T09:51:56;29.10;57.10
13585;DHT22;6863;48.402;9.994;2023-05-09T09:54:25;28.90;57.60
13585;DHT22;6863;48.402;9.994;2023-05-09T09:56:52;30.30;55.00
13585;DHT22;6863;48.402;9.994;2023-05-09T09:59:23;30.10;53.60
13585;DHT22;6863;48.402;9.994;2023-05-09T10:02:05;28.90;56.50
13585;DHT22;6863;48.402;9.994;2023-05-09T10:04:34;28.50;57.90
13585;DHT22;6863;48.402;9.994;2023-05-09T10:07:01;27.70;59.30
13585;DHT22;6863;48.402;9.994;2023-05-09T10:09:31;28.50;57.80
13585;DHT22;6863;48.402;9.994;2023-05-09T10:12:02;28.20;57.30
13585;DHT22;6863;48.402;9.994;2023-05-09T10:14:30;28.10;59.20
13585;DHT22;6863;48.402;9.994;2023-05-09T10:16:56;28.10;57.90
13585;DHT22;6863;48.402;9.994;2023-05-09T10:19:22;27.60;58.50
13585;DHT22;6863;48.402;9.994;2023-05-09T10:21:57;27.40;59.90
13585;DHT22;6863;48.402;9.994;2023-05-09T10:24:33;28.40;58.50
13585;DHT22;6863;48.402;9.994;2023-05-09T10:27:05;29.90;55.60
13585;DHT22;6863;48.402;9.994;2023-05-09T10:29:40;29.50;55.10
13585;DHT22;6863;48.402;9.994;2023-05-09T10:32:20;30.10;55.50
13585;DHT22;6863;48.402;9.994;2023-05-09T10:34:59;32.30;50.90
13585;DHT22;6863;48.402;9.994;2023-05-09T10:37:27;33.80;47.60
13585;DHT22;6863;48.402;9.994;2023-05-09T10:39:54;32.30;47.70
13585;DHT22;6863;48.402;9.994;2023-05-09T10:42:24;29.90;52.20
13585;DHT22;6863;48.402;9.994;2023-05-09T10:44:51;29.20;54.50
13585;DHT22;6863;48.402;9.994;2023-05-09T10:47:19;30.40;53.20
13585;DHT22;6863;48.402;9.994;2023-05-09T10:49:49;31.30;51.20
13585;DHT22;6863;48.402;9.994;2023-05-09T10:52:20;31.70;48.60
13585;DHT22;6863;48.402;9.994;2023-05-09T10:55:08;32.70;46.90
13585;DHT22;6863;48.402;9.994;2023-05-09T10:57:39;34.10;45.20
13585;DHT22;6863;48.402;9.994;2023-05-09T11:00:08;34.20;44.20
13585;DHT22;6863;48.402;9.994;2023-05-09T11:03:05;34.80;43.00
13585;DHT22;6863;48.402;9.994;2023-05-09T11:05:38;35.00;41.90
13585;DHT22;6863;48.402;9.994;2023-05-09T11:08:40;34.30;42.70
13585;DHT22;6863;48.402;9.994;2023-05-09T11:11:24;33.90;43.90
13585;DHT22;6863;48.402;9.994;2023-05-09T11:13:56;34.50;42.80
13585;DHT22;6863;48.402;9.994;2023-05-09T11:16:25;35.00;41.70
13585;DHT22;6863;48.402;9.994;2023-05-09T11:18:55;32.70;44.40
13585;DHT22;6863;48.402;9.994;2023-05-09T11:21:24;31.20;46.90
13585;DHT22;6863;48.402;9.994;2023-05-09T11:23:50;29.60;51.00
13585;DHT22;6863;48.402;9.994;2023-05-09T11:26:20;30.10;50.10
13585;DHT22;6863;48.402;9.994;2023-05-09T11:28:51;30.20;51.00
13585;DHT22;6863;48.402;9.994;2023-05-09T11:31:24;31.40;49.10
13585;DHT22;6863;48.402;9.994;2023-05-09T11:33:50;32.80;46.60
13585;DHT22;6863;48.402;9.994;2023-05-09T11:36:46;33.40;45.80
13585;DHT22;6863;48.402;9.994;2023-05-09T11:39:23;35.30;41.90
13585;DHT22;6863;48.402;9.994;2023-05-09T11:41:50;36.60;39.70
13585;DHT22;6863;48.402;9.994;2023-05-09T11:44:19;36.70;39.00
13585;DHT22;6863;48.402;9.994;2023-05-09T11:46:46;37.40;36.20
13585;DHT22;6863;48.402;9.994;2023-05-09T11:49:15;37.90;35.50
13585;DHT22;6863;48.402;9.994;2023-05-09T11:51:44;36.40;36.60
13585;DHT22;6863;48.402;9.994;2023-05-09T11:54:16;35.50;38.30
13585;DHT22;6863;48.402;9.994;2023-05-09T11:56:42;34.00;40.50
13585;DHT22;6863;48.402;9.994;2023-05-09T11:59:08;33.20;42.60
13585;DHT22;6863;48.402;9.994;2023-05-09T12:02:01;34.60;41.70
13585;DHT22;6863;48.402;9.994;2023-05-09T12:04:49;36.50;38.30
13585;DHT22;6863;48.402;9.994;2023-05-09T12:07:27;37.90;35.80
13585;DHT22;6863;48.402;9.994;2023-05-09T12:09:55;38.10;34.90
13585;DHT22;6863;48.402;9.994;2023-05-09T12:12:42;35.80;36.40
13585;DHT22;6863;48.402;9.994;2023-05-09T12:15:16;33.60;40.20
13585;DHT22;6863;48.402;9.994;2023-05-09T12:18:17;33.70;40.80
13585;DHT22;6863;48.402;9.994;2023-05-09T12:21:14;35.00;38.70
13585;DHT22;6863;48.402;9.994;2023-05-09T12:23:42;36.60;35.80
13585;DHT22;6863;48.402;9.994;2023-05-09T12:26:10;37.60;34.20
13585;DHT22;6863;48.402;9.994;2023-05-09T12:29:06;37.60;34.20
13585;DHT22;6863;48.402;9.994;2023-05-09T12:31:40;37.40;35.10
13585;DHT22;6863;48.402;9.994;2023-05-09T12:34:07;37.60;34.00
13585;DHT22;6863;48.402;9.994;2023-05-09T12:36:35;37.90;33.60
13585;DHT22;6863;48.402;9.994;2023-05-09T12:39:02;36.90;35.00
13585;DHT22;6863;48.402;9.994;2023-05-09T12:41:44;38.20;33.20
13585;DHT22;6863;48.402;9.994;2023-05-09T12:44:20;39.00;31.70
13585;DHT22;6863;48.402;9.994;2023-05-09T12:47:01;38.70;31.80
13585;DHT22;6863;48.402;9.994;2023-05-09T12:49:31;38.60;33.00
13585;DHT22;6863;48.402;9.994;2023-05-09T12:51:58;38.40;32.30
13585;DHT22;6863;48.402;9.994;2023-05-09T12:54:31;37.00;34.70
13585;DHT22;6863;48.402;9.994;2023-05-09T12:57:00;35.70;35.30
13585;DHT22;6863;48.402;9.994;2023-05-09T12:59:29;32.60;38.80
13585;DHT22;6863;48.402;9.994;2023-05-09T13:01:58;32.80;38.70
13585;DHT22;6863;48.402;9.994;2023-05-09T13:04:28;32.70;38.90
13585;DHT22;6863;48.402;9.994;2023-05-09T13:06:57;33.60;38.40
13585;DHT22;6863;48.402;9.994;2023-05-09T13:09:25;33.50;39.70
13585;DHT22;6863;48.402;9.994;2023-05-09T13:11:52;33.80;38.70
13585;DHT22;6863;48.402;9.994;2023-05-09T13:14:19;33.40;40.50
13585;DHT22;6863;48.402;9.994;2023-05-09T13:16:46;34.70;38.80
13585;DHT22;6863;48.402;9.994;2023-05-09T13:19:18;36.20;36.40
13585;DHT22;6863;48.402;9.994;2023-05-09T13:21:43;35.90;37.20
13585;DHT22;6863;48.402;9.994;2023-05-09T13:24:12;36.00;36.10
13585;DHT22;6863;48.402;9.994;2023-05-09T13:26:37;36.40;35.10
13585;DHT22;6863;48.402;9.994;2023-05-09T13:29:06;35.00;37.00
13585;DHT22;6863;48.402;9.994;2023-05-09T13:31:32;35.50;36.70
13585;DHT22;6863;48.402;9.994;2023-05-09T13:33:57;34.80;38.00
13585;DHT22;6863;48.402;9.994;2023-05-09T13:36:23;35.60;36.10
13585;DHT22;6863;48.402;9.994;2023-05-09T13:38:49;35.50;37.30
13585;DHT22;6863;48.402;9.994;2023-05-09T13:41:14;35.40;36.50
13585;DHT22;6863;48.402;9.994;2023-05-09T13:43:44;36.10;35.60
13585;DHT22;6863;48.402;9.994;2023-05-09T13:46:10;36.40;34.90
13585;DHT22;6863;48.402;9.994;2023-05-09T13:48:35;36.30;35.60
13585;DHT22;6863;48.402;9.994;2023-05-09T13:51:02;35.40;36.60
13585;DHT22;6863;48.402;9.994;2023-05-09T13:53:28;35.50;36.30
13585;DHT22;6863;48.402;9.994;2023-05-09T13:55:53;35.20;37.10
13585;DHT22;6863;48.402;9.994;2023-05-09T13:58:19;35.40;36.30
13585;DHT22;6863;48.402;9.994;2023-05-09T14:00:44;34.00;38.20
13585;DHT22;6863;48.402;9.994;2023-05-09T14:03:10;34.10;38.30
13585;DHT22;6863;48.402;9.994;2023-05-09T14:05:36;33.90;39.30
13585;DHT22;6863;48.402;9.994;2023-05-09T14:08:01;33.60;39.60
13585;DHT22;6863;48.402;9.994;2023-05-09T14:10:40;32.70;40.50
13585;DHT22;6863;48.402;9.994;2023-05-09T14:13:06;31.80;41.60
13585;DHT22;6863;48.402;9.994;2023-05-09T14:15:33;30.60;44.10
13585;DHT22;6863;48.402;9.994;2023-05-09T14:17:58;29.90;46.00
13585;DHT22;6863;48.402;9.994;2023-05-09T14:20:24;29.80;47.60
13585;DHT22;6863;48.402;9.994;2023-05-09T14:22:50;29.50;45.50
13585;DHT22;6863;48.402;9.994;2023-05-09T14:25:16;28.20;48.30
13585;DHT22;6863;48.402;9.994;2023-05-09T14:27:44;28.20;48.60
13585;DHT22;6863;48.402;9.994;2023-05-09T14:30:10;28.70;47.70
13585;DHT22;6863;48.402;9.994;2023-05-09T14:32:35;29.60;46.50
13585;DHT22;6863;48.402;9.994;2023-05-09T14:35:01;30.10;46.20
13585;DHT22;6863;48.402;9.994;2023-05-09T14:37:27;30.00;45.30
13585;DHT22;6863;48.402;9.994;2023-05-09T14:39:53;29.20;46.50
13585;DHT22;6863;48.402;9.994;2023-05-09T14:42:22;28.80;48.10
13585;DHT22;6863;48.402;9.994;2023-05-09T14:44:51;28.80;48.90
13585;DHT22;6863;48.402;9.994;2023-05-09T14:47:16;29.60;47.80
13585;DHT22;6863;48.402;9.994;2023-05-09T14:49:42;30.00;46.40
13585;DHT22;6863;48.402;9.994;2023-05-09T14:52:07;29.10;47.90
13585;DHT22;6863;48.402;9.994;2023-05-09T14:54:34;28.80;48.50
13585;DHT22;6863;48.402;9.994;2023-05-09T14:57:00;28.60;49.10
13585;DHT22;6863;48.402;9.994;2023-05-09T14:59:28;27.90;49.00
13585;DHT22;6863;48.402;9.994;2023-05-09T15:01:54;27.30;50.60
13585;DHT22;6863;48.402;9.994;2023-05-09T15:04:20;26.90;51.80
13585;DHT22;6863;48.402;9.994;2023-05-09T15:06:45;26.60;52.20
13585;DHT22;6863;48.402;9.994;2023-05-09T15:09:11;26.00;53.20
13585;DHT22;6863;48.402;9.994;2023-05-09T15:11:37;25.70;54.40
13585;DHT22;6863;48.402;9.994;2023-05-09T15:14:02;25.60;54.40
13585;DHT22;6863;48.402;9.994;2023-05-09T15:16:28;25.40;54.60
13585;DHT22;6863;48.402;9.994;2023-05-09T15:18:56;25.60;54.50
13585;DHT22;6863;48.402;9.994;2023-05-09T15:21:25;25.80;54.20
13585;DHT22;6863;48.402;9.994;2023-05-09T15:23:53;25.60;54.40
13585;DHT22;6863;48.402;9.994;2023-05-09T15:26:19;25.50;55.80
13585;DHT22;6863;48.402;9.994;2023-05-09T15:28:44;25.90;55.10
13585;DHT22;6863;48.402;9.994;2023-05-09T15:31:12;26.00;54.70
13585;DHT22;6863;48.402;9.994;2023-05-09T15:33:38;25.30;55.40
13585;DHT22;6863;48.402;9.994;2023-05-09T15:36:04;24.70;57.00
13585;DHT22;6863;48.402;9.994;2023-05-09T15:38:31;24.70;56.50
13585;DHT22;6863;48.402;9.994;2023-05-09T15:40:56;24.70;58.10
13585;DHT22;6863;48.402;9.994;2023-05-09T15:43:22;24.60;58.30
13585;DHT22;6863;48.402;9.994;2023-05-09T15:45:47;24.60;57.70
13585;DHT22;6863;48.402;9.994;2023-05-09T15:48:13;24.40;57.40
13585;DHT22;6863;48.402;9.994;2023-05-09T15:50:41;24.30;57.90
13585;DHT22;6863;48.402;9.994;2023-05-09T15:53:07;24.60;56.50
13585;DHT22;6863;48.402;9.994;2023-05-09T15:55:32;24.40;56.70
13585;DHT22;6863;48.402;9.994;2023-05-09T15:57:58;23.70;58.50
13585;DHT22;6863;48.402;9.994;2023-05-09T16:00:24;23.60;59.40
13585;DHT22;6863;48.402;9.994;2023-05-09T16:02:49;23.80;59.00
13585;DHT22;6863;48.402;9.994;2023-05-09T16:05:16;24.20;58.80
13585;DHT22;6863;48.402;9.994;2023-05-09T16:07:45;24.20;58.00
13585;DHT22;6863;48.402;9.994;2023-05-09T16:10:14;24.20;58.40
13585;DHT22;6863;48.402;9.994;2023-05-09T16:12:39;24.00;58.20
13585;DHT22;6863;48.402;9.994;2023-05-09T16:15:05;24.10;59.00